Time;durP1;ratioP1;P1;durP2;ratioP2;P2;SDS_P1;SDS_P2;PMS_P1;PMS_P2;Temp;Humidity;BMP_temperature;BMP_pressure;BME280_temperature;BME280_humidity;BME280_pressure;Samples;Min_cycle;Max_cycle;Signal;HPM_P1;HPM_P2
2021/10/17 00:02:03;;;;;;;18.13;7.70;;;;;;;-141.50;100.00;63355.56;4952729;28;20043;-78
2021/10/17 00:04:30;;;;;;;19.58;7.40;;;;;;;-141.50;100.00;63355.56;4955410;28;20043;-78
2021/10/17 00:06:56;;;;;;;19.52;6.95;;;;;;;-141.50;100.00;63355.56;4955114;28;20058;-78
2021/10/17 00:09:23;;;;;;;25.77;7.78;;;;;;;-141.50;100.00;63355.56;4956356;28;20080;-77
2021/10/17 00:11:49;;;;;;;15.85;7.30;;;;;;;-141.50;100.00;63355.56;4955273;29;20291;-78
2021/10/17 00:14:16;;;;;;;18.30;7.78;;;;;;;-141.50;100.00;63355.56;4955940;29;20043;-79
2021/10/17 00:16:42;;;;;;;21.20;7.43;;;;;;;-141.50;100.00;63355.56;4956346;28;20404;-78
2021/10/17 00:19:09;;;;;;;21.17;7.93;;;;;;;-141.50;100.00;63355.56;4953568;29;20051;-78
2021/10/17 00:21:36;;;;;;;17.85;8.10;;;;;;;-141.50;100.00;63355.56;4952971;28;20043;-77
2021/10/17 00:24:03;;;;;;;23.27;8.32;;;;;;;-141.50;100.00;63355.56;4951425;28;20492;-77
2021/10/17 00:26:29;;;;;;;18.92;7.70;;;;;;;-141.50;100.00;63355.56;4951093;29;20043;-76
2021/10/17 00:28:56;;;;;;;18.58;8.77;;;;;;;-141.50;100.00;63355.56;4952405;28;20290;-77
2021/10/17 00:31:23;;;;;;;16.58;8.63;;;;;;;-141.50;100.00;63355.56;4953872;28;20051;-79
2021/10/17 00:33:50;;;;;;;19.00;8.73;;;;;;;-141.50;100.00;63355.56;4953239;28;20047;-78
2021/10/17 00:36:17;;;;;;;23.23;8.65;;;;;;;-141.50;100.00;63355.56;4954629;28;20043;-79
2021/10/17 00:38:43;;;;;;;15.40;8.15;;;;;;;-141.50;100.00;63355.56;4954898;28;20040;-78
2021/10/17 00:41:10;;;;;;;21.65;8.45;;;;;;;-141.50;100.00;63355.56;4952760;28;20074;-77
2021/10/17 00:43:37;;;;;;;21.30;8.95;;;;;;;-141.50;100.00;63355.56;4951931;29;20316;-78
2021/10/17 00:46:03;;;;;;;17.65;8.82;;;;;;;-141.50;100.00;63355.56;4957493;28;20054;-77
2021/10/17 00:48:30;;;;;;;19.98;8.52;;;;;;;-141.50;100.00;63355.56;4959418;28;20141;-77
2021/10/17 00:50:58;;;;;;;18.50;8.13;;;;;;;-141.50;100.00;63355.56;4956658;28;20134;-78
2021/10/17 00:53:25;;;;;;;16.67;8.52;;;;;;;-141.50;100.00;63355.56;4954808;28;20051;-77
2021/10/17 00:55:53;;;;;;;16.35;8.20;;;;;;;-141.50;100.00;63355.56;4954707;28;20046;-77
2021/10/17 00:58:20;;;;;;;23.42;8.77;;;;;;;-141.50;100.00;63355.56;4958352;28;20582;-77
2021/10/17 01:03:42;;;;;;;22.70;8.32;;;;;;;-141.50;100.00;63355.56;4894781;29;20051;-82
2021/10/17 01:06:12;;;;;;;21.95;8.15;;;;;;;-141.50;100.00;63355.56;4896643;29;20048;-82
2021/10/17 01:08:42;;;;;;;19.77;8.98;;;;;;;-141.50;100.00;63355.56;4896592;29;20052;-81
2021/10/17 01:11:09;;;;;;;17.67;9.45;;;;;;;-141.50;100.00;63355.56;4898278;29;20056;-83
2021/10/17 01:13:36;;;;;;;19.75;8.43;;;;;;;-141.50;100.00;63355.56;4898768;29;20123;-83
2021/10/17 01:16:03;;;;;;;19.30;8.90;;;;;;;-141.50;100.00;63355.56;4902724;29;20063;-83
2021/10/17 01:18:31;;;;;;;21.60;7.90;;;;;;;-141.50;100.00;63355.56;4908226;29;20072;-82
2021/10/17 01:20:57;;;;;;;20.38;8.65;;;;;;;-141.50;100.00;63355.56;4899994;29;20049;-83
2021/10/17 01:23:25;;;;;;;15.10;8.20;;;;;;;-141.50;100.00;63355.56;4916025;29;20049;-83
2021/10/17 01:25:52;;;;;;;17.00;7.78;;;;;;;-141.50;100.00;63355.56;4900813;29;20044;-83
2021/10/17 01:28:19;;;;;;;18.30;8.65;;;;;;;-141.50;100.00;63355.56;4898598;29;20052;-82
2021/10/17 01:30:47;;;;;;;23.08;8.65;;;;;;;-141.50;100.00;63355.56;4883862;29;20078;-83
2021/10/17 01:33:13;;;;;;;23.05;7.95;;;;;;;-141.50;100.00;63355.56;4881848;29;20056;-84
2021/10/17 01:35:40;;;;;;;17.63;7.65;;;;;;;-141.50;100.00;63355.56;4899351;29;20096;-82
2021/10/17 01:38:07;;;;;;;19.10;8.73;;;;;;;-141.50;100.00;63355.56;4867024;29;20057;-83
2021/10/17 01:40:34;;;;;;;20.40;8.07;;;;;;;-141.50;100.00;63355.56;4897807;29;20405;-83
2021/10/17 01:43:01;;;;;;;18.83;7.90;;;;;;;-141.50;100.00;63355.56;4898322;29;20059;-82
2021/10/17 01:45:28;;;;;;;21.65;8.32;;;;;;;-141.50;100.00;63355.56;4899060;29;20362;-82
2021/10/17 01:47:57;;;;;;;19.70;7.65;;;;;;;-141.50;100.00;63355.56;4882301;29;20048;-83
2021/10/17 01:50:24;;;;;;;22.50;8.00;;;;;;;-141.50;100.00;63355.56;4897278;29;20044;-83
2021/10/17 01:52:50;;;;;;;21.13;7.55;;;;;;;-141.50;100.00;63355.56;4900816;29;20157;-83
2021/10/17 01:55:17;;;;;;;19.13;7.45;;;;;;;-141.50;100.00;63355.56;4884936;29;20158;-83
2021/10/17 01:57:45;;;;;;;17.50;6.85;;;;;;;-141.50;100.00;63355.56;4885058;29;20052;-83
2021/10/17 02:00:13;;;;;;;21.23;7.82;;;;;;;-141.50;100.00;63355.56;4899950;29;20048;-82
2021/10/17 02:02:40;;;;;;;18.58;7.55;;;;;;;-141.50;100.00;63355.56;4900522;29;20044;-82
2021/10/17 02:05:08;;;;;;;20.85;7.70;;;;;;;-141.50;100.00;63355.56;4900346;29;20052;-82
2021/10/17 02:07:35;;;;;;;19.25;7.05;;;;;;;-141.50;100.00;63355.56;4883640;29;20542;-82
2021/10/17 02:10:03;;;;;;;19.15;7.65;;;;;;;-141.50;100.00;63355.56;4900092;29;20124;-82
2021/10/17 02:12:30;;;;;;;15.60;6.57;;;;;;;-141.50;100.00;63355.56;4899879;29;20048;-82
2021/10/17 02:14:57;;;;;;;18.52;6.50;;;;;;;-141.50;100.00;63355.56;4900531;29;20565;-83
2021/10/17 02:17:23;;;;;;;16.45;6.57;;;;;;;-141.50;100.00;63355.56;4899596;29;20049;-81
2021/10/17 02:19:50;;;;;;;17.80;7.18;;;;;;;-141.50;100.00;63355.56;4900549;29;20045;-82
2021/10/17 02:22:16;;;;;;;22.58;7.50;;;;;;;-141.50;100.00;63355.56;4900721;29;20112;-83
2021/10/17 02:24:43;;;;;;;18.80;7.00;;;;;;;-141.50;100.00;63355.56;4884762;29;20403;-83
2021/10/17 02:27:10;;;;;;;19.15;6.53;;;;;;;-141.50;100.00;63355.56;4884423;29;20056;-82
2021/10/17 02:29:37;;;;;;;14.48;6.50;;;;;;;-141.50;100.00;63355.56;4884148;29;20064;-82
2021/10/17 02:32:04;;;;;;;18.10;7.43;;;;;;;-141.50;100.00;63355.56;4883584;29;20104;-83
2021/10/17 02:34:30;;;;;;;18.45;6.47;;;;;;;-141.50;100.00;63355.56;4908014;29;20112;-83
2021/10/17 02:36:57;;;;;;;13.07;6.85;;;;;;;-141.50;100.00;63355.56;4904340;29;20189;-83
2021/10/17 02:39:23;;;;;;;18.73;7.43;;;;;;;-141.50;100.00;63355.56;4869476;29;20509;-82
2021/10/17 02:41:53;;;;;;;21.08;7.97;;;;;;;-141.50;100.00;63355.56;4898428;29;20055;-83
2021/10/17 02:44:19;;;;;;;21.30;8.75;;;;;;;-141.50;100.00;63355.56;4883133;29;20049;-83
2021/10/17 02:46:48;;;;;;;20.67;8.32;;;;;;;-141.50;100.00;63355.56;4899513;29;20045;-82
2021/10/17 02:49:15;;;;;;;20.25;8.48;;;;;;;-141.50;100.00;63355.56;4884632;29;20060;-83
2021/10/17 02:51:42;;;;;;;17.77;8.80;;;;;;;-141.50;100.00;63355.56;4898317;29;20059;-82
2021/10/17 02:54:10;;;;;;;30.35;8.73;;;;;;;-141.50;100.00;63355.56;4884037;29;20435;-83
2021/10/17 02:56:37;;;;;;;19.02;8.07;;;;;;;-141.50;100.00;63355.56;4884341;29;20053;-83
2021/10/17 02:59:04;;;;;;;23.75;8.27;;;;;;;-141.50;100.00;63355.56;4884559;29;20048;-82
2021/10/17 03:01:31;;;;;;;20.83;7.85;;;;;;;-141.50;100.00;63355.56;4884831;29;20144;-82
2021/10/17 03:03:58;;;;;;;24.15;8.60;;;;;;;-141.50;100.00;63355.56;4898612;29;20040;-83
2021/10/17 03:06:26;;;;;;;17.30;8.40;;;;;;;-141.50;100.00;63355.56;4900541;29;20052;-82
2021/10/17 03:08:53;;;;;;;21.23;8.25;;;;;;;-141.50;100.00;63355.56;4900490;29;20044;-82
2021/10/17 03:11:20;;;;;;;25.35;8.93;;;;;;;-141.50;100.00;63355.56;4903448;29;20343;-82
2021/10/17 03:13:48;;;;;;;24.00;9.15;;;;;;;-141.50;100.00;63355.56;4901924;29;20053;-82
2021/10/17 03:16:14;;;;;;;18.48;8.20;;;;;;;-141.50;100.00;63355.56;4901063;29;20056;-82
2021/10/17 03:18:41;;;;;;;19.38;8.15;;;;;;;-141.50;100.00;63355.56;4901066;29;20490;-81
2021/10/17 03:21:08;;;;;;;19.05;8.52;;;;;;;-141.50;100.00;63355.56;4885038;29;21435;-82
2021/10/17 03:23:34;;;;;;;16.05;7.05;;;;;;;-141.50;100.00;63355.56;4885717;29;20092;-80
2021/10/17 03:26:01;;;;;;;20.60;7.50;;;;;;;-141.50;100.00;63355.56;4899215;29;20071;-81
2021/10/17 03:28:28;;;;;;;16.52;7.18;;;;;;;-141.50;100.00;63355.56;4899216;29;20135;-82
2021/10/17 03:30:55;;;;;;;23.80;7.88;;;;;;;-141.50;100.00;63355.56;4899653;29;20497;-82
2021/10/17 03:33:22;;;;;;;18.13;8.70;;;;;;;-141.50;100.00;63355.56;4899232;29;20112;-82
2021/10/17 03:35:49;;;;;;;20.40;8.63;;;;;;;-141.50;100.00;63355.56;4900004;29;20045;-82
2021/10/17 03:38:16;;;;;;;17.77;7.13;;;;;;;-141.50;100.00;63355.56;4883446;29;20064;-82
2021/10/17 03:40:43;;;;;;;21.27;7.82;;;;;;;-141.50;100.00;63355.56;4883519;29;20057;-81
2021/10/17 03:43:10;;;;;;;19.58;8.02;;;;;;;-141.50;100.00;63355.56;4899048;29;20041;-81
2021/10/17 03:45:37;;;;;;;14.77;7.60;;;;;;;-141.50;100.00;63355.56;4883834;29;20088;-82
2021/10/17 03:48:03;;;;;;;21.30;7.82;;;;;;;-141.50;100.00;63355.56;4899456;29;20052;-82
2021/10/17 03:50:30;;;;;;;19.10;7.78;;;;;;;-141.50;100.00;63355.56;4899707;29;20048;-83
2021/10/17 03:52:56;;;;;;;15.63;7.47;;;;;;;-141.50;100.00;63355.56;4899997;29;20060;-82
2021/10/17 03:55:23;;;;;;;18.40;7.85;;;;;;;-141.50;100.00;63355.56;4900287;29;20513;-82
2021/10/17 03:57:49;;;;;;;18.65;8.07;;;;;;;-141.50;100.00;63355.56;4898590;29;20309;-82
2021/10/17 04:00:16;;;;;;;18.52;7.88;;;;;;;-141.50;100.00;63355.56;4899311;29;20466;-82
2021/10/17 04:02:43;;;;;;;15.98;7.90;;;;;;;-141.50;100.00;63355.56;4883034;29;20241;-82
2021/10/17 04:05:10;;;;;;;17.00;7.70;;;;;;;-141.50;100.00;63355.56;4901185;29;20044;-82
2021/10/17 04:07:37;;;;;;;16.95;8.10;;;;;;;-141.50;100.00;63355.56;4899940;29;20048;-81
2021/10/17 04:10:05;;;;;;;18.65;7.50;;;;;;;-141.50;100.00;63355.56;4900683;29;20053;-82
2021/10/17 04:12:31;;;;;;;18.23;7.72;;;;;;;-141.50;100.00;63355.56;4900217;29;20056;-83
2021/10/17 04:15:01;;;;;;;13.63;7.05;;;;;;;-141.50;100.00;63355.56;4899753;29;20458;-82
2021/10/17 04:17:27;;;;;;;17.70;7.85;;;;;;;-141.50;100.00;63355.56;4900266;29;20139;-83
2021/10/17 04:19:54;;;;;;;17.58;7.72;;;;;;;-141.50;100.00;63355.56;4900758;29;20068;-82
2021/10/17 04:22:20;;;;;;;18.48;7.40;;;;;;;-141.50;100.00;63355.56;4902047;29;20072;-82
2021/10/17 04:24:47;;;;;;;21.02;7.68;;;;;;;-141.50;100.00;63355.56;4904118;29;20056;-82
2021/10/17 04:27:14;;;;;;;15.45;7.13;;;;;;;-141.50;100.00;63355.56;4899172;29;20040;-83
2021/10/17 04:29:40;;;;;;;18.95;7.60;;;;;;;-141.50;100.00;63355.56;4898957;29;20059;-83
2021/10/17 04:32:07;;;;;;;14.70;7.07;;;;;;;-141.50;100.00;63355.56;4898893;29;20048;-82
2021/10/17 04:34:34;;;;;;;17.02;6.95;;;;;;;-141.50;100.00;63355.56;4897811;29;20049;-83
2021/10/17 04:37:02;;;;;;;17.83;6.70;;;;;;;-141.50;100.00;63355.56;4882510;29;20063;-83
2021/10/17 04:39:29;;;;;;;14.73;6.63;;;;;;;-141.50;100.00;63355.56;4899865;29;20044;-83
2021/10/17 04:41:55;;;;;;;15.95;6.65;;;;;;;-141.50;100.00;63355.56;4882908;29;20052;-83
2021/10/17 04:44:22;;;;;;;16.10;6.90;;;;;;;-141.50;100.00;63355.56;4898963;29;20337;-82
2021/10/17 04:46:49;;;;;;;17.25;7.00;;;;;;;-141.50;100.00;63355.56;4883598;29;20216;-83
2021/10/17 04:49:15;;;;;;;14.43;7.28;;;;;;;-141.50;100.00;63355.56;4882175;29;20390;-82
2021/10/17 04:51:42;;;;;;;23.05;7.97;;;;;;;-141.50;100.00;63355.56;4898539;29;20478;-82
2021/10/17 04:54:09;;;;;;;20.40;8.70;;;;;;;-141.50;100.00;63355.56;4898849;29;20049;-82
2021/10/17 04:56:36;;;;;;;23.10;10.20;;;;;;;-141.50;100.00;63355.56;4882051;29;20057;-82
2021/10/17 04:59:02;;;;;;;26.27;9.73;;;;;;;-141.50;100.00;63355.56;4898472;29;20143;-82
2021/10/17 05:01:29;;;;;;;27.48;10.55;;;;;;;-141.50;100.00;63355.56;4899487;29;20464;-83
2021/10/17 05:03:56;;;;;;;27.02;9.27;;;;;;;-141.50;100.00;63355.56;4914466;29;20052;-82
2021/10/17 05:06:22;;;;;;;25.50;8.32;;;;;;;-141.50;100.00;63355.56;4916386;29;20115;-83
2021/10/17 05:08:49;;;;;;;18.02;7.65;;;;;;;-141.50;100.00;63355.56;4888348;29;20052;-83
2021/10/17 05:11:17;;;;;;;17.15;7.80;;;;;;;-141.50;100.00;63355.56;4898033;29;20049;-82
2021/10/17 05:13:44;;;;;;;17.80;7.28;;;;;;;-141.50;100.00;63355.56;4882412;29;20243;-83
2021/10/17 05:16:10;;;;;;;19.35;6.95;;;;;;;-141.50;100.00;63355.56;4905485;29;20058;-83
2021/10/17 05:18:37;;;;;;;20.92;7.80;;;;;;;-141.50;100.00;63355.56;4881652;29;20059;-83
2021/10/17 05:21:04;;;;;;;20.58;7.97;;;;;;;-141.50;100.00;63355.56;4897892;29;20056;-81
2021/10/17 05:23:31;;;;;;;14.70;7.90;;;;;;;-141.50;100.00;63355.56;4886399;29;20109;-83
2021/10/17 05:25:57;;;;;;;13.43;7.40;;;;;;;-141.50;100.00;63355.56;4877677;29;20053;-83
2021/10/17 05:28:24;;;;;;;15.13;6.78;;;;;;;-141.50;100.00;63355.56;4877937;29;20052;-83
2021/10/17 05:30:50;;;;;;;16.73;6.80;;;;;;;-141.50;100.00;63355.56;4896154;29;20068;-83
2021/10/17 05:33:17;;;;;;;15.07;6.35;;;;;;;-141.50;100.00;63355.56;4897619;29;20087;-83
2021/10/17 05:35:43;;;;;;;14.07;6.47;;;;;;;-141.50;100.00;63355.56;4898032;29;20255;-83
2021/10/17 05:38:10;;;;;;;16.90;7.05;;;;;;;-141.50;100.00;63355.56;4896678;29;20083;-83
2021/10/17 05:40:38;;;;;;;21.35;7.18;;;;;;;-141.50;100.00;63355.56;4895859;29;20044;-83
2021/10/17 05:43:05;;;;;;;14.93;6.82;;;;;;;-141.50;100.00;63355.56;4886083;29;20048;-83
2021/10/17 05:45:34;;;;;;;16.20;6.28;;;;;;;-141.50;100.00;63355.56;4898832;29;20242;-83
2021/10/17 05:48:00;;;;;;;16.08;5.70;;;;;;;-141.50;100.00;63355.56;4897012;29;20045;-82
2021/10/17 05:50:27;;;;;;;15.32;6.13;;;;;;;-141.50;100.00;63355.56;4898795;29;20048;-83
2021/10/17 05:52:56;;;;;;;14.93;5.75;;;;;;;-141.50;100.00;63355.56;4897092;29;20143;-83
2021/10/17 05:55:22;;;;;;;19.55;6.15;;;;;;;-141.50;100.00;63355.56;4896987;29;20087;-83
2021/10/17 05:57:49;;;;;;;19.98;6.68;;;;;;;-141.50;100.00;63355.56;4897767;29;20056;-83
2021/10/17 06:00:16;;;;;;;12.57;5.97;;;;;;;-141.50;100.00;63355.56;4898172;29;20055;-83
2021/10/17 06:02:42;;;;;;;17.25;5.88;;;;;;;-141.50;100.00;63355.56;4898741;29;20093;-83
2021/10/17 06:05:09;;;;;;;20.98;6.18;;;;;;;-141.50;100.00;63355.56;4898271;29;20059;-83
2021/10/17 06:07:36;;;;;;;17.30;6.57;;;;;;;-141.50;100.00;63355.56;4883042;29;20056;-83
2021/10/17 06:10:09;;;;;;;16.25;6.15;;;;;;;-141.50;100.00;63355.56;4899158;29;20052;-83
2021/10/17 06:12:38;;;;;;;17.73;6.15;;;;;;;-141.50;100.00;63355.56;4900768;29;20112;-84
2021/10/17 06:15:06;;;;;;;11.27;5.38;;;;;;;-141.50;100.00;63355.56;4898655;29;20053;-83
2021/10/17 06:17:33;;;;;;;15.57;7.05;;;;;;;-141.50;100.00;63355.56;4897324;29;20193;-81
2021/10/17 06:20:00;;;;;;;16.55;6.32;;;;;;;-141.50;100.00;63355.56;4896467;29;20172;-83
2021/10/17 06:22:28;;;;;;;16.50;6.50;;;;;;;-141.50;100.00;63355.56;4898306;29;20044;-83
2021/10/17 06:24:54;;;;;;;15.75;6.32;;;;;;;-141.50;100.00;63355.56;4895572;29;20120;-83
2021/10/17 06:27:21;;;;;;;14.57;5.90;;;;;;;-141.50;100.00;63355.56;4897185;29;20056;-83
2021/10/17 06:29:48;;;;;;;13.48;5.53;;;;;;;-141.50;100.00;63355.56;4897381;29;20324;-83
2021/10/17 06:32:14;;;;;;;14.48;5.43;;;;;;;-141.50;100.00;63355.56;4896424;29;20064;-83
2021/10/17 06:34:41;;;;;;;16.98;5.05;;;;;;;-141.50;100.00;63355.56;4895549;29;20129;-83
2021/10/17 06:37:08;;;;;;;16.40;4.93;;;;;;;-141.50;100.00;63355.56;4879724;29;20041;-82
2021/10/17 06:39:34;;;;;;;18.45;5.55;;;;;;;-141.50;100.00;63355.56;4897113;29;20044;-83
2021/10/17 06:42:01;;;;;;;10.82;4.88;;;;;;;-141.50;100.00;63355.56;4879892;29;20171;-83
2021/10/17 06:44:28;;;;;;;14.25;4.95;;;;;;;-141.50;100.00;63355.56;4891591;29;20063;-82
2021/10/17 06:46:54;;;;;;;10.05;4.72;;;;;;;-141.50;100.00;63355.56;4906654;29;20052;-82
2021/10/17 06:49:21;;;;;;;12.73;4.95;;;;;;;-141.50;100.00;63355.56;4898947;29;20052;-83
2021/10/17 06:51:48;;;;;;;15.77;5.00;;;;;;;-141.50;100.00;63355.56;4895115;29;20052;-83
2021/10/17 06:54:15;;;;;;;13.40;4.72;;;;;;;-141.50;100.00;63355.56;4862938;29;20057;-83
2021/10/17 06:56:41;;;;;;;14.35;4.63;;;;;;;-141.50;100.00;63355.56;4884269;29;20084;-83
2021/10/17 06:59:08;;;;;;;11.20;4.97;;;;;;;-141.50;100.00;63355.56;4871224;29;20131;-84
2021/10/17 07:01:34;;;;;;;15.55;5.47;;;;;;;-141.50;100.00;63355.56;4913687;23;20079;-84
2021/10/17 07:04:01;;;;;;;15.27;5.60;;;;;;;-141.50;100.00;63355.56;4938369;28;20054;-83
2021/10/17 07:06:28;;;;;;;10.80;5.18;;;;;;;-141.50;100.00;63355.56;4955076;28;20228;-85
2021/10/17 07:08:58;;;;;;;15.15;4.88;;;;;;;-141.50;100.00;63355.56;4939197;29;20065;-83
2021/10/17 07:11:25;;;;;;;12.95;4.75;;;;;;;-141.50;100.00;63355.56;4957472;28;20042;-83
2021/10/17 07:13:51;;;;;;;15.95;5.03;;;;;;;-141.50;100.00;63355.56;4931835;29;20051;-82
2021/10/17 07:16:18;;;;;;;12.50;5.00;;;;;;;-141.50;100.00;63355.56;4947963;28;20055;-84
2021/10/17 07:18:45;;;;;;;10.88;4.63;;;;;;;-141.50;100.00;63355.56;4915901;29;20043;-84
2021/10/17 07:21:15;;;;;;;12.05;4.90;;;;;;;-141.50;100.00;63355.56;4925522;29;20674;-83
2021/10/17 07:23:41;;;;;;;10.73;4.50;;;;;;;-141.50;100.00;63355.56;4919687;29;20047;-82
2021/10/17 07:26:08;;;;;;;10.02;4.88;;;;;;;-141.50;100.00;63355.56;4930443;29;20070;-84
2021/10/17 07:28:35;;;;;;;12.32;4.25;;;;;;;-141.50;100.00;63355.56;4927357;29;20065;-85
2021/10/17 07:31:02;;;;;;;12.80;4.38;;;;;;;-141.50;100.00;63355.56;4931042;29;20056;-83
2021/10/17 07:33:28;;;;;;;13.05;4.30;;;;;;;-141.50;100.00;63355.56;4934486;28;20052;-82
2021/10/17 07:35:55;;;;;;;10.20;3.85;;;;;;;-141.50;100.00;63355.56;4938602;28;20051;-81
2021/10/17 07:38:22;;;;;;;12.95;4.10;;;;;;;-141.50;100.00;63355.56;4956380;28;20076;-83
2021/10/17 07:40:49;;;;;;;16.85;4.00;;;;;;;-141.50;100.00;63355.56;4975635;28;20062;-82
2021/10/17 07:43:15;;;;;;;13.52;4.10;;;;;;;-141.50;100.00;63355.56;4956434;28;20046;-87
2021/10/17 07:45:42;;;;;;;9.57;3.92;;;;;;;-141.50;100.00;63355.56;4974967;28;20065;-87
2021/10/17 07:48:17;;;;;;;11.18;4.00;;;;;;;-141.50;100.00;63355.56;4957915;28;20066;-88
2021/10/17 07:50:44;;;;;;;8.60;3.50;;;;;;;-141.50;100.00;63355.56;4976112;28;20046;-84
2021/10/17 07:53:10;;;;;;;8.88;3.42;;;;;;;-141.50;100.00;63355.56;4957554;28;20042;-84
2021/10/17 07:55:38;;;;;;;11.30;3.53;;;;;;;-141.50;100.00;63355.56;4956189;28;20051;-84
2021/10/17 07:58:05;;;;;;;12.77;4.20;;;;;;;-141.50;100.00;63355.56;4958201;28;20050;-84
2021/10/17 08:00:31;;;;;;;12.65;3.90;;;;;;;-141.50;100.00;63355.56;4959196;28;20050;-82
2021/10/17 08:02:58;;;;;;;12.82;4.00;;;;;;;-141.50;100.00;63355.56;4958936;28;20101;-84
2021/10/17 08:05:25;;;;;;;11.65;3.35;;;;;;;-141.50;100.00;63355.56;4953181;28;20035;-80
2021/10/17 08:07:53;;;;;;;10.50;4.05;;;;;;;-141.50;100.00;63355.56;4956706;29;20081;-82
2021/10/17 08:10:20;;;;;;;11.68;3.88;;;;;;;-141.50;100.00;63355.56;4937239;29;20146;-82
2021/10/17 08:12:46;;;;;;;9.13;3.85;;;;;;;-141.50;100.00;63355.56;4950952;29;20066;-81
2021/10/17 08:15:13;;;;;;;14.07;3.90;;;;;;;-141.50;100.00;63355.56;4955360;28;20203;-82
2021/10/17 08:17:40;;;;;;;10.52;4.13;;;;;;;-141.50;100.00;63355.56;4956267;29;20043;-84
2021/10/17 08:20:07;;;;;;;11.50;3.72;;;;;;;-141.50;100.00;63355.56;4939349;29;20047;-85
2021/10/17 08:23:15;;;;;;;11.82;4.03;;;;;;;-141.50;100.00;63355.56;4955553;29;20047;-87
2021/10/17 08:25:43;;;;;;;14.15;4.10;;;;;;;-141.50;100.00;63355.56;4954745;28;20635;-84
2021/10/17 08:28:14;;;;;;;12.30;4.00;;;;;;;-141.50;100.00;63355.56;4954814;29;20039;-83
2021/10/17 08:30:46;;;;;;;14.98;3.92;;;;;;;-141.50;100.00;63355.56;4945625;28;20593;-83
2021/10/17 08:33:22;;;;;;;13.68;4.68;;;;;;;-141.50;100.00;63355.56;4945505;29;20077;-82
2021/10/17 08:35:53;;;;;;;15.68;4.18;;;;;;;-141.50;100.00;63355.56;4945996;29;20079;-86
2021/10/17 08:38:19;;;;;;;14.32;4.38;;;;;;;-141.50;100.00;63355.56;4964016;29;20039;-79
2021/10/17 08:40:52;;;;;;;12.27;3.88;;;;;;;-141.50;100.00;63355.56;4949172;29;20047;-83
2021/10/17 08:43:19;;;;;;;8.77;3.78;;;;;;;-141.50;100.00;63355.56;4966159;28;20075;-86
2021/10/17 08:45:46;;;;;;;8.38;3.50;;;;;;;-141.50;100.00;63355.56;4965050;28;20582;-82
2021/10/17 08:48:13;;;;;;;9.40;2.75;;;;;;;-141.50;100.00;63355.56;4963632;28;20054;-80
2021/10/17 08:50:41;;;;;;;6.72;2.30;;;;;;;-141.50;100.00;63355.56;4946483;29;20050;-81
2021/10/17 08:53:09;;;;;;;8.43;2.55;;;;;;;-141.50;100.00;63355.56;4959005;28;20066;-83
2021/10/17 08:55:36;;;;;;;9.15;2.53;;;;;;;-141.50;100.00;63355.56;4927417;29;20644;-83
2021/10/17 08:58:02;;;;;;;12.07;2.63;;;;;;;-141.50;100.00;63355.56;4944761;29;20602;-86
2021/10/17 09:00:34;;;;;;;10.38;2.45;;;;;;;-141.50;100.00;63355.56;4929856;29;20451;-85
2021/10/17 09:03:03;;;;;;;8.85;2.40;;;;;;;-141.50;100.00;63355.56;4961187;28;20051;-83
2021/10/17 09:05:39;;;;;;;12.60;2.33;;;;;;;-141.50;100.00;63355.56;4945882;29;20161;-85
2021/10/17 09:08:08;;;;;;;12.20;2.25;;;;;;;-141.50;100.00;63355.56;4960289;29;20039;-85
2021/10/17 09:10:36;;;;;;;8.52;2.15;;;;;;;-141.50;100.00;63355.56;4939582;29;20089;-87
2021/10/17 09:13:08;;;;;;;9.25;2.10;;;;;;;-141.50;100.00;63355.56;4939863;29;20127;-84
2021/10/17 09:15:38;;;;;;;8.82;1.80;;;;;;;-141.50;100.00;63355.56;4926321;28;20046;-83
2021/10/17 09:18:18;;;;;;;10.75;2.30;;;;;;;-141.50;100.00;63355.56;4954206;28;20070;-85
2021/10/17 09:20:52;;;;;;;9.70;2.30;;;;;;;-141.50;100.00;63355.56;4939259;28;20117;-85
2021/10/17 09:23:22;;;;;;;6.13;1.80;;;;;;;-141.50;100.00;63355.56;4976426;23;20091;-78
2021/10/17 09:25:50;;;;;;;13.15;1.95;;;;;;;-141.50;100.00;63355.56;4955660;28;20119;-80
2021/10/17 09:28:20;;;;;;;7.95;2.05;;;;;;;-141.50;100.00;63355.56;4969688;28;20125;-80
2021/10/17 09:30:58;;;;;;;7.63;2.20;;;;;;;-141.50;100.00;63355.56;4947046;28;20298;-78
2021/10/17 09:33:53;;;;;;;7.30;2.10;;;;;;;-141.50;100.00;63355.56;4944019;28;20062;-78
2021/10/17 09:36:21;;;;;;;13.77;2.58;;;;;;;-141.50;100.00;63355.56;4962774;28;20050;-76
2021/10/17 09:38:52;;;;;;;6.10;2.05;;;;;;;-141.50;100.00;63355.56;4948802;28;20463;-77
2021/10/17 09:41:28;;;;;;;11.07;2.40;;;;;;;-141.50;100.00;63355.56;4967302;28;20050;-77
2021/10/17 09:43:57;;;;;;;7.68;1.92;;;;;;;-141.50;100.00;63355.56;4949644;28;20129;-78
2021/10/17 09:46:24;;;;;;;7.35;2.22;;;;;;;-141.50;100.00;63355.56;4949691;28;20046;-77
2021/10/17 09:48:51;;;;;;;10.02;2.60;;;;;;;-141.50;100.00;63355.56;4951070;28;20523;-78
2021/10/17 09:51:26;;;;;;;6.10;1.92;;;;;;;-141.50;100.00;63355.56;4941146;29;20058;-77
2021/10/17 09:53:57;;;;;;;7.97;2.00;;;;;;;-141.50;100.00;63355.56;4957364;29;20047;-77
2021/10/17 09:56:24;;;;;;;7.28;1.95;;;;;;;-141.50;100.00;63355.56;4926615;28;20086;-77
2021/10/17 09:58:54;;;;;;;5.68;1.77;;;;;;;-141.50;100.00;63355.56;4959663;28;20070;-78
2021/10/17 10:01:25;;;;;;;5.70;1.73;;;;;;;-141.50;100.00;63355.56;4978799;28;20047;-78
2021/10/17 10:03:53;;;;;;;7.63;1.65;;;;;;;-141.50;100.00;63355.56;4960543;28;20047;-77
2021/10/17 10:06:24;;;;;;;6.05;1.85;;;;;;;-141.50;100.00;63355.56;4979667;28;20047;-77
2021/10/17 10:08:55;;;;;;;7.57;1.67;;;;;;;-141.50;100.00;63355.56;4960013;28;20530;-77
2021/10/17 10:11:23;;;;;;;8.90;1.77;;;;;;;-141.50;100.00;63355.56;4939241;29;20059;-78
2021/10/17 10:13:54;;;;;;;7.32;1.75;;;;;;;-141.50;100.00;63355.56;4954932;28;20120;-76
2021/10/17 10:16:23;;;;;;;4.90;1.58;;;;;;;-141.50;100.00;63355.56;4933828;29;20051;-78
2021/10/17 10:18:58;;;;;;;6.53;1.52;;;;;;;-141.50;100.00;63355.56;4934538;28;20047;-77
2021/10/17 10:21:25;;;;;;;6.13;1.90;;;;;;;-141.50;100.00;63355.56;4971048;28;20109;-77
2021/10/17 10:23:54;;;;;;;6.72;1.60;;;;;;;-141.50;100.00;63355.56;4963434;28;20432;-77
2021/10/17 10:26:27;;;;;;;10.05;2.00;;;;;;;-141.50;100.00;63355.56;4934528;29;20511;-77
2021/10/17 10:28:54;;;;;;;7.47;1.70;;;;;;;-141.50;100.00;63355.56;4951015;28;20047;-77
2021/10/17 10:31:39;;;;;;;9.73;1.90;;;;;;;-141.50;100.00;63355.56;4953995;29;20054;-78
2021/10/17 10:34:10;;;;;;;7.87;1.73;;;;;;;-141.50;100.00;63355.56;4951882;29;20126;-78
2021/10/17 10:36:45;;;;;;;7.32;1.90;;;;;;;-141.50;100.00;63355.56;4950506;29;20058;-77
2021/10/17 10:39:14;;;;;;;9.38;2.17;;;;;;;-141.50;100.00;63355.56;4952313;28;20074;-77
2021/10/17 10:42:01;;;;;;;4.88;1.52;;;;;;;-141.50;100.00;63355.56;4951109;28;20054;-78
2021/10/17 10:44:30;;;;;;;9.73;1.92;;;;;;;-141.50;100.00;63355.56;4950946;28;20051;-78
2021/10/17 10:46:59;;;;;;;5.38;1.88;;;;;;;-141.50;100.00;63355.56;4944219;28;20420;-78
2021/10/17 10:49:46;;;;;;;7.85;1.90;;;;;;;-141.50;100.00;63355.56;4953122;28;20325;-79
2021/10/17 10:52:33;;;;;;;6.30;1.77;;;;;;;-141.50;100.00;63355.56;4971156;28;20644;-78
2021/10/17 10:55:33;;;;;;;6.65;1.63;;;;;;;-141.50;100.00;63355.56;4949556;28;20054;-78
2021/10/17 10:58:18;;;;;;;8.63;2.13;;;;;;;-141.50;100.00;63355.56;4937273;28;20043;-78
2021/10/17 11:00:45;;;;;;;10.10;2.50;;;;;;;-141.50;100.00;63355.56;4974109;28;20054;-76
2021/10/17 11:03:14;;;;;;;8.35;2.20;;;;;;;-141.50;100.00;63355.56;4971238;28;20050;-78
2021/10/17 11:06:06;;;;;;;8.02;1.70;;;;;;;-141.50;100.00;63355.56;4969726;28;20050;-78
2021/10/17 11:08:34;;;;;;;5.63;1.77;;;;;;;-141.50;100.00;63355.56;4952918;28;20058;-77
2021/10/17 11:11:01;;;;;;;8.82;1.95;;;;;;;-141.50;100.00;63355.56;4953399;28;20043;-78